createdAt,value
2018-07-30T00:00:27.255Z,24.53
2018-07-30T00:02:54.519Z,24.55
2018-07-30T00:05:21.864Z,24.55
2018-07-30T00:07:49.138Z,24.56
2018-07-30T00:10:16.403Z,24.58
2018-07-30T00:12:43.653Z,24.60
2018-07-30T00:15:10.909Z,24.63
2018-07-30T00:17:40.279Z,24.65
2018-07-30T00:20:09.958Z,24.71
2018-07-30T00:22:37.449Z,24.70
2018-07-30T00:25:04.751Z,24.65
2018-07-30T00:27:32.763Z,24.54
2018-07-30T00:29:59.991Z,24.45
2018-07-30T00:32:27.269Z,24.36
2018-07-30T00:34:54.490Z,24.21
2018-07-30T00:37:21.741Z,24.10
2018-07-30T00:39:48.992Z,24.02
2018-07-30T00:42:16.318Z,23.93
2018-07-30T00:44:44.594Z,23.80
2018-07-30T00:47:11.839Z,23.72
2018-07-30T00:49:39.090Z,23.63
2018-07-30T00:52:06.403Z,23.56
2018-07-30T00:54:33.698Z,23.52
2018-07-30T00:57:00.975Z,23.47
2018-07-30T00:59:28.235Z,23.38
2018-07-30T01:01:55.468Z,23.30
2018-07-30T01:04:22.733Z,23.25
2018-07-30T01:06:49.994Z,23.18
2018-07-30T01:09:17.279Z,23.15
2018-07-30T01:11:44.503Z,23.09
2018-07-30T01:14:14.490Z,22.97
2018-07-30T01:16:41.991Z,22.90
2018-07-30T01:19:09.443Z,22.86
2018-07-30T01:21:36.744Z,22.81
2018-07-30T01:24:04.202Z,22.73
2018-07-30T01:26:32.167Z,22.64
2018-07-30T01:28:59.980Z,22.54
2018-07-30T01:31:27.238Z,22.46
2018-07-30T01:33:54.485Z,22.43
2018-07-30T01:36:21.747Z,22.30
2018-07-30T01:38:49.751Z,22.16
2018-07-30T01:41:17.216Z,21.96
2018-07-30T01:43:44.490Z,21.88
2018-07-30T01:46:11.747Z,21.72
2018-07-30T01:48:38.994Z,21.59
2018-07-30T01:51:06.467Z,21.47
2018-07-30T01:53:34.744Z,21.37
2018-07-30T01:56:01.982Z,21.26
2018-07-30T01:58:29.295Z,21.18
2018-07-30T02:00:56.595Z,21.04
2018-07-30T02:03:23.869Z,20.77
2018-07-30T02:05:51.155Z,20.59
2018-07-30T02:08:18.587Z,20.36
2018-07-30T02:10:45.859Z,20.24
2018-07-30T02:13:13.072Z,20.14
2018-07-30T02:15:40.344Z,20.19
2018-07-30T02:18:07.564Z,20.18
2018-07-30T02:20:34.899Z,20.16
2018-07-30T02:23:02.227Z,20.25
2018-07-30T02:25:29.558Z,20.26
2018-07-30T02:27:56.852Z,20.22
2018-07-30T02:30:24.176Z,20.15
2018-07-30T02:32:51.437Z,20.03
2018-07-30T02:35:18.722Z,19.95
2018-07-30T02:37:46.040Z,19.89
2018-07-30T02:40:13.428Z,19.85
2018-07-30T02:42:40.757Z,19.85
2018-07-30T02:45:08.111Z,19.79
2018-07-30T02:47:35.516Z,19.79
2018-07-30T02:50:03.025Z,19.69
2018-07-30T02:52:30.655Z,19.72
2018-07-30T02:54:57.914Z,19.72
2018-07-30T02:57:25.176Z,19.66
2018-07-30T02:59:52.555Z,19.63
2018-07-30T03:02:36.738Z,19.60
2018-07-30T03:05:04.463Z,19.53
2018-07-30T03:07:31.774Z,19.48
2018-07-30T03:09:59.963Z,19.41
2018-07-30T03:12:27.279Z,19.37
2018-07-30T03:14:54.610Z,19.32
2018-07-30T03:17:21.901Z,19.38
2018-07-30T03:19:50.406Z,19.44
2018-07-30T03:22:18.789Z,19.44
2018-07-30T03:24:47.518Z,19.42
2018-07-30T03:27:14.885Z,19.37
2018-07-30T03:29:42.215Z,19.29
2018-07-30T03:32:09.654Z,19.23
2018-07-30T03:34:36.996Z,19.20
2018-07-30T03:37:04.515Z,19.17
2018-07-30T03:39:33.178Z,19.13
2018-07-30T03:42:00.510Z,19.16
2018-07-30T03:44:27.920Z,19.20
2018-07-30T03:46:55.288Z,19.20
2018-07-30T03:49:22.701Z,19.21
2018-07-30T03:51:50.128Z,19.15
2018-07-30T03:54:19.674Z,19.12
2018-07-30T03:56:47.195Z,19.13
2018-07-30T03:59:14.564Z,19.16
2018-07-30T04:01:41.957Z,19.11
2018-07-30T04:04:09.455Z,19.10
2018-07-30T04:06:36.812Z,19.05
2018-07-30T04:09:06.167Z,19.08
2018-07-30T04:11:33.548Z,19.13
2018-07-30T04:14:00.896Z,19.18
2018-07-30T04:16:28.386Z,19.17
2018-07-30T04:18:55.755Z,19.21
2018-07-30T04:21:24.202Z,19.24
2018-07-30T04:23:51.598Z,19.22
2018-07-30T04:26:19.002Z,19.19
2018-07-30T04:28:46.343Z,19.18
2018-07-30T04:31:13.702Z,19.19
2018-07-30T04:33:41.072Z,19.23
2018-07-30T04:36:08.482Z,19.29
2018-07-30T04:38:35.959Z,19.40
2018-07-30T04:41:03.516Z,19.51
2018-07-30T04:43:30.848Z,19.65
2018-07-30T04:45:58.209Z,19.80
2018-07-30T04:48:27.602Z,20.01
2018-07-30T04:50:54.998Z,20.20
2018-07-30T04:53:22.318Z,20.42
2018-07-30T04:55:49.842Z,20.61
2018-07-30T04:58:17.228Z,20.76
2018-07-30T05:00:44.608Z,21.01
2018-07-30T05:03:11.919Z,21.28
2018-07-30T05:05:39.307Z,21.50
2018-07-30T05:08:06.672Z,21.71
2018-07-30T05:10:34.823Z,21.94
2018-07-30T05:13:02.221Z,22.19
2018-07-30T05:15:29.601Z,22.43
2018-07-30T05:17:56.866Z,22.68
2018-07-30T05:20:24.197Z,22.96
2018-07-30T05:22:51.563Z,23.23
2018-07-30T05:25:19.039Z,23.51
2018-07-30T05:27:46.398Z,23.75
2018-07-30T05:30:13.764Z,23.92
2018-07-30T05:32:41.108Z,24.02
2018-07-30T05:35:08.492Z,24.15
2018-07-30T05:37:36.799Z,24.45
2018-07-30T05:40:04.653Z,24.74
2018-07-30T05:42:32.138Z,25.06
2018-07-30T05:44:59.513Z,25.38
2018-07-30T05:47:27.405Z,25.74
2018-07-30T05:49:55.277Z,26.10
2018-07-30T05:52:22.623Z,26.44
2018-07-30T05:54:49.976Z,26.76
2018-07-30T05:57:17.379Z,27.05
2018-07-30T05:59:45.219Z,27.24
2018-07-30T06:02:12.613Z,27.65
2018-07-30T06:04:40.046Z,27.90
2018-07-30T06:07:07.935Z,28.22
2018-07-30T06:09:35.738Z,28.23
2018-07-30T06:12:03.253Z,28.26
2018-07-30T06:14:30.616Z,28.67
2018-07-30T06:16:57.995Z,28.95
2018-07-30T06:19:25.583Z,29.34
2018-07-30T06:21:52.966Z,29.31
2018-07-30T06:24:20.474Z,29.08
2018-07-30T06:26:48.002Z,29.07
2018-07-30T06:29:15.353Z,29.00
2018-07-30T06:31:42.766Z,28.92
2018-07-30T06:34:10.136Z,28.91
2018-07-30T06:36:37.519Z,28.91
2018-07-30T06:39:07.086Z,28.84
2018-07-30T06:41:35.323Z,28.85
2018-07-30T06:44:02.891Z,28.76
2018-07-30T06:46:30.492Z,28.63
2018-07-30T06:48:57.865Z,28.54
2018-07-30T06:51:25.229Z,28.54
2018-07-30T06:53:54.289Z,28.63
2018-07-30T06:56:21.760Z,28.82
2018-07-30T06:58:49.141Z,28.89
2018-07-30T07:01:16.645Z,28.99
2018-07-30T07:03:44.246Z,29.07
2018-07-30T07:06:11.619Z,29.11
2018-07-30T07:08:38.941Z,29.05
2018-07-30T07:11:06.526Z,29.01
2018-07-30T07:13:36.070Z,29.24
2018-07-30T07:16:03.536Z,29.66
2018-07-30T07:18:31.019Z,29.68
2018-07-30T07:20:58.521Z,29.97
2018-07-30T07:23:25.923Z,30.31
2018-07-30T07:25:53.274Z,30.48
2018-07-30T07:28:20.897Z,30.81
2018-07-30T07:30:48.253Z,31.03
2018-07-30T07:33:15.719Z,30.64
2018-07-30T07:35:43.115Z,31.21
2018-07-30T07:38:10.633Z,32.29
2018-07-30T07:40:38.090Z,32.58
2018-07-30T07:43:05.548Z,33.35
2018-07-30T07:45:33.063Z,33.07
2018-07-30T07:48:00.780Z,32.98
2018-07-30T07:50:28.439Z,32.89
2018-07-30T07:52:55.819Z,33.05
2018-07-30T07:55:23.385Z,32.76
2018-07-30T07:57:50.797Z,33.28
2018-07-30T08:00:18.296Z,34.39
2018-07-30T08:02:45.791Z,35.00
2018-07-30T08:05:13.144Z,35.33
2018-07-30T08:07:40.506Z,35.36
2018-07-30T08:10:08.433Z,35.74
2018-07-30T08:12:35.964Z,36.34
2018-07-30T08:15:03.478Z,36.80
2018-07-30T08:17:30.832Z,36.18
2018-07-30T08:19:58.235Z,35.22
2018-07-30T08:22:25.626Z,34.54
2018-07-30T08:24:52.976Z,33.63
2018-07-30T08:27:20.386Z,33.02
2018-07-30T08:29:47.690Z,32.60
2018-07-30T08:32:15.112Z,32.25
2018-07-30T08:34:42.468Z,32.50
2018-07-30T08:37:09.855Z,32.54
2018-07-30T08:39:37.331Z,32.57
2018-07-30T08:42:04.862Z,32.60
2018-07-30T08:44:32.872Z,32.37
2018-07-30T08:47:00.364Z,32.23
2018-07-30T08:49:27.871Z,32.10
2018-07-30T08:51:55.200Z,32.26
2018-07-30T08:54:22.728Z,32.22
2018-07-30T08:56:50.258Z,32.42
2018-07-30T08:59:17.713Z,32.81
2018-07-30T09:01:45.111Z,33.50
2018-07-30T09:04:12.545Z,34.10
2018-07-30T09:06:40.224Z,35.22
2018-07-30T09:09:08.938Z,35.49
2018-07-30T09:11:36.780Z,36.09
2018-07-30T09:14:04.198Z,36.05
2018-07-30T09:16:31.575Z,35.92
2018-07-30T09:18:58.984Z,36.10
2018-07-30T09:21:26.291Z,35.91
2018-07-30T09:23:53.744Z,36.13
2018-07-30T09:26:21.129Z,36.70
2018-07-30T09:28:48.510Z,36.56
2018-07-30T09:31:16.058Z,36.91
2018-07-30T09:33:43.469Z,36.91
2018-07-30T09:36:10.864Z,36.96
2018-07-30T09:38:39.630Z,36.86
2018-07-30T09:41:07.207Z,37.16
2018-07-30T09:43:34.902Z,36.81
2018-07-30T09:46:02.757Z,36.98
2018-07-30T09:48:30.206Z,36.91
2018-07-30T09:50:57.711Z,36.82
2018-07-30T09:53:25.088Z,36.81
2018-07-30T09:55:53.007Z,37.27
2018-07-30T09:58:20.366Z,37.72
2018-07-30T10:00:53.166Z,37.36
2018-07-30T10:03:20.560Z,37.75
2018-07-30T10:05:48.055Z,37.33
2018-07-30T10:08:15.410Z,37.22
2018-07-30T10:10:42.772Z,37.67
2018-07-30T10:13:10.173Z,37.82
2018-07-30T10:15:37.546Z,37.55
2018-07-30T10:18:05.460Z,38.02
2018-07-30T10:20:32.786Z,37.04
2018-07-30T10:23:00.120Z,38.19
2018-07-30T10:25:27.468Z,38.82
2018-07-30T10:27:54.845Z,39.08
2018-07-30T10:30:22.207Z,38.74
2018-07-30T10:32:49.609Z,39.12
2018-07-30T10:35:16.978Z,39.08
2018-07-30T10:37:44.267Z,39.20
2018-07-30T10:40:11.748Z,38.92
2018-07-30T10:42:39.074Z,39.00
2018-07-30T10:45:06.461Z,38.69
2018-07-30T10:47:33.847Z,38.78
2018-07-30T10:50:01.525Z,38.55
2018-07-30T10:52:28.850Z,37.63
2018-07-30T10:54:56.226Z,37.44
2018-07-30T10:57:23.615Z,37.37
2018-07-30T10:59:51.026Z,36.57
2018-07-30T11:02:18.386Z,37.75
2018-07-30T11:04:45.785Z,38.47
2018-07-30T11:07:13.148Z,38.37
2018-07-30T11:09:40.624Z,38.67
2018-07-30T11:12:07.911Z,38.36
2018-07-30T11:14:35.264Z,38.91
2018-07-30T11:17:02.759Z,39.00
2018-07-30T11:19:30.331Z,38.09
2018-07-30T11:21:57.781Z,38.22
2018-07-30T11:24:25.180Z,38.81
2018-07-30T11:26:52.707Z,38.85
2018-07-30T11:29:20.113Z,38.41
2018-07-30T11:31:47.750Z,38.41
2018-07-30T11:34:15.112Z,38.29
2018-07-30T11:36:42.439Z,38.77
2018-07-30T11:39:11.393Z,38.78
2018-07-30T11:41:38.712Z,38.39
2018-07-30T11:44:06.415Z,38.81
2018-07-30T11:46:33.799Z,38.73
2018-07-30T11:49:01.230Z,38.84
2018-07-30T11:51:28.535Z,39.26
2018-07-30T11:53:56.036Z,39.28
2018-07-30T11:56:23.392Z,38.82
2018-07-30T11:58:50.803Z,39.11
2018-07-30T12:01:18.211Z,39.58
2018-07-30T12:03:45.543Z,40.39
2018-07-30T12:06:12.900Z,40.01
2018-07-30T12:08:40.231Z,39.42
2018-07-30T12:11:07.799Z,38.90
2018-07-30T12:13:35.217Z,39.15
2018-07-30T12:16:25.897Z,39.55
2018-07-30T12:18:53.262Z,40.12
2018-07-30T12:21:20.669Z,40.52
2018-07-30T12:23:48.187Z,40.40
2018-07-30T12:26:15.579Z,40.20
2018-07-30T12:28:42.950Z,40.76
2018-07-30T12:31:10.358Z,41.50
2018-07-30T12:33:37.732Z,40.67
2018-07-30T12:36:05.212Z,40.12
2018-07-30T12:38:32.889Z,39.78
2018-07-30T12:41:00.293Z,39.51
2018-07-30T12:43:29.801Z,39.79
2018-07-30T12:45:57.466Z,39.75
2018-07-30T12:48:24.922Z,39.94
2018-07-30T12:50:52.497Z,39.88
2018-07-30T12:53:20.037Z,38.61
2018-07-30T12:55:47.554Z,38.35
2018-07-30T12:58:14.864Z,37.73
2018-07-30T13:00:42.254Z,37.28
2018-07-30T13:03:09.692Z,36.99
2018-07-30T13:05:37.122Z,37.34
2018-07-30T13:08:04.477Z,38.48
2018-07-30T13:10:33.814Z,39.07
2018-07-30T13:13:01.194Z,39.33
2018-07-30T13:15:28.602Z,38.28
2018-07-30T13:17:56.122Z,37.81
2018-07-30T13:20:23.506Z,37.81
2018-07-30T13:23:02.536Z,37.32
2018-07-30T13:25:30.162Z,37.71
2018-07-30T13:27:57.549Z,37.89
2018-07-30T13:30:24.872Z,38.42
2018-07-30T13:32:52.287Z,38.38
2018-07-30T13:35:19.724Z,38.37
2018-07-30T13:37:47.163Z,37.93
2018-07-30T13:40:14.577Z,38.26
2018-07-30T13:42:42.001Z,38.64
2018-07-30T13:45:09.536Z,38.52
2018-07-30T13:47:37.110Z,38.43
2018-07-30T13:50:05.577Z,38.89
2018-07-30T13:52:33.207Z,39.07
2018-07-30T13:55:01.267Z,38.99
2018-07-30T13:57:29.565Z,38.91
2018-07-30T13:59:57.661Z,38.89
2018-07-30T14:02:25.118Z,38.82
2018-07-30T14:04:52.504Z,38.52
2018-07-30T14:07:20.098Z,38.38
2018-07-30T14:09:49.370Z,38.53
2018-07-30T14:12:49.219Z,37.60
2018-07-30T14:15:18.137Z,37.60
2018-07-30T14:17:45.636Z,37.34
2018-07-30T14:20:13.070Z,36.80
2018-07-30T14:22:40.529Z,36.63
2018-07-30T14:25:08.017Z,36.97
2018-07-30T14:27:35.422Z,37.04
2018-07-30T14:30:03.509Z,36.62
2018-07-30T14:32:30.936Z,36.39
2018-07-30T14:34:58.495Z,36.35
2018-07-30T14:37:26.094Z,35.93
2018-07-30T14:39:53.511Z,35.96
2018-07-30T14:42:21.127Z,36.06
2018-07-30T14:44:48.563Z,35.89
2018-07-30T14:47:28.120Z,35.75
2018-07-30T14:50:00.359Z,35.41
2018-07-30T14:52:28.148Z,35.42
2018-07-30T14:54:55.854Z,35.22
2018-07-30T14:57:23.286Z,35.16
2018-07-30T14:59:53.745Z,35.23
2018-07-30T15:02:21.268Z,35.14
2018-07-30T15:04:48.668Z,35.19
2018-07-30T15:07:16.275Z,35.25
2018-07-30T15:09:43.768Z,35.17
2018-07-30T15:12:11.378Z,35.32
2018-07-30T15:14:38.747Z,35.49
2018-07-30T15:17:06.307Z,35.49
2018-07-30T15:19:34.110Z,35.38
2018-07-30T15:22:01.599Z,35.17
2018-07-30T15:24:29.097Z,35.26
2018-07-30T15:26:58.023Z,34.80
2018-07-30T15:29:25.604Z,34.73
2018-07-30T15:31:53.353Z,34.44
2018-07-30T15:34:20.842Z,34.69
2018-07-30T15:36:48.265Z,34.81
2018-07-30T15:39:15.559Z,34.92
2018-07-30T15:41:42.859Z,34.97
2018-07-30T15:44:10.105Z,34.83
2018-07-30T15:46:37.513Z,34.68
2018-07-30T15:49:04.884Z,34.76
2018-07-30T15:51:32.153Z,34.76
2018-07-30T15:53:59.495Z,34.72
2018-07-30T15:56:27.096Z,34.81
2018-07-30T15:58:54.473Z,34.78
2018-07-30T16:01:21.742Z,34.90
2018-07-30T16:03:49.022Z,34.87
2018-07-30T16:06:16.308Z,34.96
2018-07-30T16:08:43.574Z,34.75
2018-07-30T16:11:10.897Z,34.56
2018-07-30T16:13:38.289Z,34.51
2018-07-30T16:16:06.035Z,34.40
2018-07-30T16:18:33.738Z,34.57
2018-07-30T16:21:01.168Z,34.53
2018-07-30T16:23:29.053Z,34.39
2018-07-30T16:25:56.686Z,34.16
2018-07-30T16:28:24.644Z,33.89
2018-07-30T16:30:52.340Z,33.91
2018-07-30T16:33:20.818Z,33.96
2018-07-30T16:35:48.670Z,33.88
2018-07-30T16:38:16.188Z,33.83
2018-07-30T16:40:43.683Z,33.89
2018-07-30T16:43:11.304Z,33.92
2018-07-30T16:45:38.694Z,33.86
2018-07-30T16:48:06.574Z,33.97
2018-07-30T16:50:40.673Z,33.94
2018-07-30T16:53:08.281Z,33.86
2018-07-30T16:55:35.605Z,33.72
2018-07-30T16:58:03.551Z,33.60
2018-07-30T17:00:30.917Z,33.52
2018-07-30T17:02:58.280Z,33.48
2018-07-30T17:05:25.916Z,33.46
2018-07-30T17:07:53.406Z,33.43
2018-07-30T17:10:20.792Z,33.43
2018-07-30T17:12:48.219Z,33.25
2018-07-30T17:15:15.664Z,33.06
2018-07-30T17:17:43.153Z,33.08
2018-07-30T17:20:12.218Z,32.93
2018-07-30T17:22:40.018Z,32.89
2018-07-30T17:25:07.288Z,32.97
2018-07-30T17:27:34.553Z,33.01
2018-07-30T17:30:01.871Z,32.96
2018-07-30T17:32:29.119Z,32.94
2018-07-30T17:34:56.684Z,32.90
2018-07-30T17:37:24.002Z,32.92
2018-07-30T17:39:51.865Z,32.82
2018-07-30T17:42:20.403Z,32.76
2018-07-30T17:44:47.726Z,32.81
2018-07-30T17:47:15.927Z,32.81
2018-07-30T17:49:47.304Z,32.75
2018-07-30T17:52:15.924Z,32.69
2018-07-30T17:54:43.364Z,32.53
2018-07-30T17:57:10.878Z,32.44
2018-07-30T17:59:38.751Z,32.40
2018-07-30T18:02:06.335Z,32.36
2018-07-30T18:04:34.111Z,32.31
2018-07-30T18:07:01.687Z,32.25
2018-07-30T18:09:29.825Z,32.19
2018-07-30T18:11:57.595Z,32.10
2018-07-30T18:14:26.177Z,32.01
2018-07-30T18:16:54.575Z,31.95
2018-07-30T18:19:22.824Z,31.87
2018-07-30T18:21:51.296Z,31.79
2018-07-30T18:24:21.772Z,31.68
2018-07-30T18:26:50.393Z,31.60
2018-07-30T18:29:20.160Z,31.54
2018-07-30T18:31:48.321Z,31.43
2018-07-30T18:34:16.848Z,31.35
2018-07-30T18:36:45.253Z,31.23
2018-07-30T18:39:14.118Z,31.09
2018-07-30T18:41:42.465Z,30.92
2018-07-30T18:44:10.714Z,30.84
2018-07-30T18:46:39.400Z,30.78
2018-07-30T18:49:07.787Z,30.68
2018-07-30T18:51:37.001Z,30.37
2018-07-30T18:54:05.853Z,30.04
2018-07-30T18:56:34.123Z,29.82
2018-07-30T18:59:01.575Z,29.57
2018-07-30T19:01:29.233Z,29.42
2018-07-30T19:03:56.708Z,29.24
2018-07-30T19:06:24.832Z,29.11
2018-07-30T19:08:52.641Z,29.04
2018-07-30T19:11:20.432Z,28.94
2018-07-30T19:13:48.054Z,28.84
2018-07-30T19:16:15.685Z,28.75
2018-07-30T19:18:43.186Z,28.68
2018-07-30T19:21:10.831Z,28.59
2018-07-30T19:23:38.312Z,28.54
2018-07-30T19:26:06.020Z,28.44
2018-07-30T19:28:33.528Z,28.43
2018-07-30T19:31:01.025Z,28.36
2018-07-30T19:33:28.416Z,28.35
2018-07-30T19:35:57.274Z,28.35
2018-07-30T19:38:24.982Z,28.31
2018-07-30T19:40:52.652Z,28.33
2018-07-30T19:43:20.290Z,28.30
2018-07-30T19:45:47.774Z,28.28
2018-07-30T19:48:15.283Z,28.27
2018-07-30T19:50:43.113Z,28.24
2018-07-30T19:53:11.170Z,28.25
2018-07-30T19:55:38.905Z,28.24
2018-07-30T19:58:06.559Z,28.23
2018-07-30T20:00:33.722Z,28.23
2018-07-30T20:03:04.111Z,28.25
2018-07-30T20:05:38.123Z,28.19
2018-07-30T20:08:05.469Z,28.20
2018-07-30T20:10:32.830Z,28.19
2018-07-30T20:13:00.104Z,28.18
2018-07-30T20:15:27.455Z,28.18
2018-07-30T20:17:54.821Z,28.17
2018-07-30T20:20:22.151Z,28.18
2018-07-30T20:22:49.541Z,28.19
2018-07-30T20:25:16.886Z,28.18
2018-07-30T20:27:44.261Z,28.16
2018-07-30T20:30:11.660Z,28.17
2018-07-30T20:32:38.976Z,28.10
2018-07-30T20:35:07.529Z,28.03
2018-07-30T20:37:35.029Z,27.98
2018-07-30T20:40:02.368Z,27.97
2018-07-30T20:42:29.787Z,28.01
2018-07-30T20:44:57.179Z,28.03
2018-07-30T20:47:29.018Z,28.06
2018-07-30T20:50:20.435Z,28.10
2018-07-30T20:52:49.681Z,28.09
2018-07-30T20:55:17.216Z,28.10
2018-07-30T20:57:44.487Z,28.09
2018-07-30T21:00:12.069Z,28.05
2018-07-30T21:02:39.516Z,27.99
2018-07-30T21:05:06.774Z,27.90
2018-07-30T21:07:34.144Z,27.86
2018-07-30T21:10:01.487Z,27.81
2018-07-30T21:12:28.824Z,27.75
2018-07-30T21:14:56.105Z,27.70
2018-07-30T21:17:23.428Z,27.65
2018-07-30T21:19:50.715Z,27.59
2018-07-30T21:22:17.998Z,27.56
2018-07-30T21:24:45.340Z,27.53
2018-07-30T21:27:12.742Z,27.41
2018-07-30T21:29:40.027Z,27.34
2018-07-30T21:32:07.322Z,27.28
2018-07-30T21:34:34.588Z,27.20
2018-07-30T21:37:01.942Z,27.10
2018-07-30T21:39:29.269Z,27.04
2018-07-30T21:41:56.630Z,27.00
2018-07-30T21:44:23.936Z,26.98
2018-07-30T21:46:51.309Z,26.95
2018-07-30T21:49:25.314Z,26.87
2018-07-30T21:51:52.643Z,26.88
2018-07-30T21:54:19.975Z,26.87
2018-07-30T21:56:47.257Z,26.83
2018-07-30T21:59:14.544Z,26.82
2018-07-30T22:01:41.894Z,26.78
2018-07-30T22:04:09.187Z,26.71
2018-07-30T22:06:36.478Z,26.71
2018-07-30T22:09:05.811Z,26.68
2018-07-30T22:11:33.120Z,26.58
2018-07-30T22:14:00.455Z,26.51
2018-07-30T22:16:27.772Z,26.43
2018-07-30T22:18:55.001Z,26.41
2018-07-30T22:21:22.306Z,26.38
2018-07-30T22:23:49.598Z,26.37
2018-07-30T22:26:16.918Z,26.36
2018-07-30T22:28:44.203Z,26.29
2018-07-30T22:31:11.514Z,26.23
2018-07-30T22:33:38.773Z,26.14
2018-07-30T22:36:06.103Z,26.12
2018-07-30T22:38:33.414Z,26.06
2018-07-30T22:41:00.699Z,25.96
2018-07-30T22:43:27.966Z,25.92
2018-07-30T22:45:55.299Z,25.86
2018-07-30T22:48:22.562Z,25.78
2018-07-30T22:50:49.826Z,25.74
2018-07-30T22:53:17.133Z,25.75
2018-07-30T22:55:44.422Z,25.77
2018-07-30T22:58:11.703Z,25.74
2018-07-30T23:00:39.009Z,25.76
2018-07-30T23:03:06.299Z,25.76
2018-07-30T23:05:33.579Z,25.74
2018-07-30T23:08:00.906Z,25.74
2018-07-30T23:10:28.438Z,25.79
2018-07-30T23:13:06.256Z,25.77
2018-07-30T23:15:44.288Z,25.78
2018-07-30T23:18:11.614Z,25.82
2018-07-30T23:20:38.859Z,25.83
2018-07-30T23:23:06.163Z,25.82
2018-07-30T23:25:33.447Z,25.79
2018-07-30T23:28:00.760Z,25.78
2018-07-30T23:30:28.063Z,25.62
2018-07-30T23:32:55.429Z,25.50
2018-07-30T23:35:22.707Z,25.33
2018-07-30T23:37:49.979Z,25.21
2018-07-30T23:40:17.264Z,25.15
2018-07-30T23:42:44.531Z,25.13
2018-07-30T23:45:11.859Z,25.10
2018-07-30T23:47:39.166Z,25.05
2018-07-30T23:50:07.425Z,24.97
2018-07-30T23:52:34.763Z,24.77
2018-07-30T23:55:02.392Z,24.64
2018-07-30T23:57:29.504Z,24.59
2018-07-30T23:59:56.836Z,24.51
